PROFILE

 METAR AND TAF INFORMATION
ADDS - METARS form results

(0411 UTC 25 April 2019)
http://aviationweather.gov/metar/data/
 
FBSK 250400Z 17006KT 9000 NSC 16/16 Q1020 NOSIG
FBSK 250300Z 2506/2612 02012KT 8000 SCT007 BECMG 2509/2511 CAVOK 

 AIRPORT MAP

 RUNWAY INFORMATION
Runway 08 Runway length 9843 ft Runway width 148 ft
Runway elevation 3292 ft Runway displaced threshold 0 ft Runway heading 62
Runway 26 Runway length 9843 ft Runway width 148 ft
Runway elevation 3291 ft Runway displaced threshold 0 ft Runway heading 242

 AIRPORT FREQUENCIES
Type APP Name GABORONE A Frequency 128.2 MHZ
Type GND Name KHAMA GND Frequency 121.9 MHZ
Type TWR Name KHAMA TWR Frequency 118.3 MHZ

 AIRPORT NEAR NAVIGATION AIDS
Type NDB Name Gaborone Frequency 311 KHZ
Type VOR-DME Name Gaborone Frequency 113700 KHZ